Portada
METAR-TAF:

METAR-TAF

Aeropuertos :

Portorož, Eslovenia

latitud: 45-31N, longitud: 013-34E, altitud: 95 m

Observación

El informe se hizo hace 40 minutos, a las 06:00 UTC
Viento 9 kt del este-sureste, variando entre este y sur
Temperatura 22°C
Humedad 60%
Presión 1007 hPa
Visibilidad 10 km o más
Nubes dispersas a una altura de 5500 ft
Cielo nuboso a una altura de 7000 ft

METAR: LJPZ 070600Z 12009KT 090V170 9999 SCT055 BKN070 22/14 Q1007

Hora: 08:40 (06:40 UTC)

Pronóstico

El informe se hizo hace 1 hora y 40 minutos, a las 05:00 UTC
Pronóstico válido del 07 a las 06 UTC al 07 a las 15 UTC
Viento 8 kt del sur-sureste
Visibilidad 10 km o más
Cielo nuboso a una altura de 6500 ft

TAF: LJPZ 070500Z 0706/0715 16008KT 9999 BKN065

Observaciones y pronósticos meteorológicos de más de 4000 aeropuertos (mensajes METAR y TAF).

Los puntos amarillos y rojos representan las estaciones disponibles.

Ponga el ratón en el punto deseado para ver el nombre de la estación.

Haga clic para ver las observaciones y los pronósticos meteorológicos.

Para cambiar el mapa : haga clic en los botones verdes con una cruz de color negro para hacer un zoom, en el botón verde con un guión para alejar o en las flechas verdes para mapas adyacentes.


METAR-TAF: